Time;durP1;ratioP1;P1;durP2;ratioP2;P2;SDS_P1;SDS_P2;PMS_P1;PMS_P2;Temp;Humidity;BMP_temperature;BMP_pressure;BME280_temperature;BME280_humidity;BME280_pressure;Samples;Min_cycle;Max_cycle;Signal;HPM_P1;HPM_P2
2022/03/10 00:01:58;;;;;;;;;;;19.50;19.60;;;;;;5141532;27;20373;-50
2022/03/10 00:04:24;;;;;;;;;;;20.40;18.70;;;;;;5141667;27;19931;-51
2022/03/10 00:06:50;;;;;;;;;;;21.10;18.10;;;;;;5146788;27;20021;-56
2022/03/10 00:09:16;;;;;;;;;;;20.50;18.50;;;;;;5137786;27;19923;-52
2022/03/10 00:11:42;;;;;;;;;;;19.80;19.40;;;;;;5140821;27;19991;-54
2022/03/10 00:14:10;;;;;;;;;;;20.80;18.40;;;;;;5146967;27;19931;-51
2022/03/10 00:16:37;;;;;;;;;;;21.30;18.00;;;;;;5141660;27;20404;-54
2022/03/10 00:19:02;;;;;;;;;;;20.00;19.00;;;;;;5147064;27;19933;-50
2022/03/10 00:21:28;;;;;;;;;;;20.10;19.20;;;;;;5141327;27;19923;-50
2022/03/10 00:23:54;;;;;;;;;;;20.90;18.40;;;;;;5141302;27;19923;-49
2022/03/10 00:26:20;;;;;;;;;;;21.10;18.20;;;;;;5143515;27;19959;-51
2022/03/10 00:28:45;;;;;;;;;;;19.50;19.70;;;;;;5139761;27;19976;-49
2022/03/10 00:31:11;;;;;;;;;;;20.40;18.90;;;;;;5141155;27;20720;-50
2022/03/10 00:33:37;;;;;;;;;;;21.10;18.20;;;;;;5146615;27;19923;-50
2022/03/10 00:36:03;;;;;;;;;;;20.90;18.40;;;;;;5141494;27;19923;-48
2022/03/10 00:38:28;;;;;;;;;;;19.80;19.60;;;;;;5145449;27;19934;-55
2022/03/10 00:40:54;;;;;;;;;;;20.70;18.60;;;;;;5143162;27;19946;-48
2022/03/10 00:43:20;;;;;;;;;;;21.20;18.20;;;;;;5141352;27;19971;-53
2022/03/10 00:45:46;;;;;;;;;;;20.00;19.20;;;;;;5142623;27;19984;-49
2022/03/10 00:48:12;;;;;;;;;;;19.90;19.50;;;;;;5140327;27;19972;-52
2022/03/10 00:50:37;;;;;;;;;;;20.80;18.60;;;;;;5141238;27;19932;-51
2022/03/10 00:53:03;;;;;;;;;;;21.30;18.30;;;;;;5146560;27;20282;-47
2022/03/10 00:55:29;;;;;;;;;;;20.30;19.00;;;;;;5140925;27;20433;-49
2022/03/10 00:57:55;;;;;;;;;;;20.00;19.40;;;;;;5124425;27;19923;-57
2022/03/10 01:00:24;;;;;;;;;;;20.80;18.70;;;;;;5126157;27;20548;-47
2022/03/10 01:02:50;;;;;;;;;;;21.20;18.30;;;;;;5139257;27;20018;-51
2022/03/10 01:05:15;;;;;;;;;;;19.50;19.90;;;;;;5143768;27;20373;-48
2022/03/10 01:07:41;;;;;;;;;;;20.30;19.20;;;;;;5140702;27;20362;-50
2022/03/10 01:10:07;;;;;;;;;;;21.00;18.60;;;;;;5140984;27;19923;-52
2022/03/10 01:12:34;;;;;;;;;;;21.10;18.40;;;;;;5146477;27;20007;-49
2022/03/10 01:15:00;;;;;;;;;;;19.60;19.90;;;;;;5140869;27;19927;-52
2022/03/10 01:17:25;;;;;;;;;;;20.50;19.10;;;;;;5140826;27;20370;-50
2022/03/10 01:19:51;;;;;;;;;;;21.10;18.50;;;;;;5141898;27;19955;-46
2022/03/10 01:22:17;;;;;;;;;;;20.70;18.80;;;;;;5136749;27;19938;-51
2022/03/10 01:24:43;;;;;;;;;;;19.80;19.80;;;;;;5147371;27;20089;-52
2022/03/10 01:27:09;;;;;;;;;;;20.70;18.90;;;;;;5143990;27;19931;-49
2022/03/10 01:29:35;;;;;;;;;;;21.30;18.40;;;;;;5144233;27;19971;-54
2022/03/10 01:32:00;;;;;;;;;;;20.30;19.10;;;;;;5149630;27;20435;-49
2022/03/10 01:34:26;;;;;;;;;;;19.80;19.70;;;;;;5144255;27;19934;-48
2022/03/10 01:36:52;;;;;;;;;;;20.80;18.90;;;;;;5143892;27;20235;-49
2022/03/10 01:39:18;;;;;;;;;;;21.20;18.40;;;;;;5148779;27;19931;-47
2022/03/10 01:41:45;;;;;;;;;;;19.70;19.80;;;;;;5140182;27;19927;-49
2022/03/10 01:44:11;;;;;;;;;;;20.30;19.40;;;;;;5148848;27;19923;-46
2022/03/10 01:46:37;;;;;;;;;;;21.00;18.70;;;;;;5143898;27;20271;-50
2022/03/10 01:49:03;;;;;;;;;;;21.30;18.50;;;;;;5143877;27;20350;-47
2022/03/10 01:51:29;;;;;;;;;;;19.80;19.80;;;;;;5149342;27;19929;-48
2022/03/10 01:53:55;;;;;;;;;;;20.30;19.40;;;;;;5143945;27;19923;-52
2022/03/10 01:56:21;;;;;;;;;;;20.90;18.80;;;;;;5124715;27;20185;-48
2022/03/10 01:58:47;;;;;;;;;;;21.20;18.60;;;;;;5145712;27;20015;-53
2022/03/10 02:01:14;;;;;;;;;;;19.40;20.20;;;;;;5142185;27;19923;-46
2022/03/10 02:03:40;;;;;;;;;;;20.40;19.30;;;;;;5147127;27;19950;-54
2022/03/10 02:06:06;;;;;;;;;;;21.00;18.70;;;;;;5145378;27;19931;-46
2022/03/10 02:11:17;;;;;;;;;;;19.60;20.10;;;;;;5148976;27;19971;-49
2022/03/10 02:13:43;;;;;;;;;;;20.60;19.10;;;;;;5143318;27;19931;-47
2022/03/10 02:18:56;;;;;;;;;;;20.80;18.80;;;;;;5145201;27;19947;-49
2022/03/10 02:21:22;;;;;;;;;;;19.90;19.80;;;;;;5142828;27;19934;-50
2022/03/10 02:23:48;;;;;;;;;;;20.80;18.90;;;;;;5143342;27;20042;-47
2022/03/10 02:26:14;;;;;;;;;;;21.20;18.50;;;;;;5148682;27;19950;-49
2022/03/10 02:28:40;;;;;;;;;;;19.90;19.50;;;;;;5143208;27;19923;-48
2022/03/10 02:31:06;;;;;;;;;;;20.30;19.40;;;;;;5143142;27;20000;-49
2022/03/10 02:33:32;;;;;;;;;;;20.90;18.80;;;;;;5148514;27;19930;-49
2022/03/10 02:35:58;;;;;;;;;;;21.20;18.50;;;;;;5121068;27;20283;-48
2022/03/10 02:38:24;;;;;;;;;;;19.60;20.10;;;;;;5146857;27;19931;-47
2022/03/10 02:40:50;;;;;;;;;;;20.50;19.30;;;;;;5142936;27;19930;-46
2022/03/10 02:43:16;;;;;;;;;;;21.10;18.80;;;;;;5142970;27;20006;-46
2022/03/10 02:45:41;;;;;;;;;;;21.10;18.60;;;;;;5148529;27;19929;-47
2022/03/10 02:48:07;;;;;;;;;;;19.60;20.20;;;;;;5142878;27;19923;-48
2022/03/10 02:50:33;;;;;;;;;;;20.50;19.30;;;;;;5142872;27;20018;-48
2022/03/10 02:52:59;;;;;;;;;;;21.00;18.80;;;;;;5147942;27;19923;-52
2022/03/10 02:55:25;;;;;;;;;;;21.30;18.50;;;;;;5139039;27;19923;-45
2022/03/10 02:57:50;;;;;;;;;;;19.60;20.10;;;;;;5146612;27;19923;-53
2022/03/10 03:00:16;;;;;;;;;;;19.90;19.90;;;;;;5143908;27;19950;-47
2022/03/10 03:02:42;;;;;;;;;;;20.70;19.20;;;;;;5123624;27;20036;-48
2022/03/10 03:05:09;;;;;;;;;;;21.10;18.80;;;;;;5147936;27;20031;-48
2022/03/10 03:07:34;;;;;;;;;;;21.20;18.70;;;;;;5142479;27;19959;-49
2022/03/10 03:10:00;;;;;;;;;;;20.30;19.40;;;;;;5142749;27;20010;-47
2022/03/10 03:12:26;;;;;;;;;;;19.50;20.30;;;;;;5145348;27;19927;-47
2022/03/10 03:14:52;;;;;;;;;;;20.50;19.30;;;;;;5139968;27;19923;-47
2022/03/10 03:17:18;;;;;;;;;;;20.90;18.80;;;;;;5144253;27;19923;-53
2022/03/10 03:19:43;;;;;;;;;;;21.20;18.60;;;;;;5146331;27;19927;-51
2022/03/10 03:22:09;;;;;;;;;;;20.40;19.20;;;;;;5142489;27;19930;-48
2022/03/10 03:24:35;;;;;;;;;;;19.80;19.90;;;;;;5147824;27;19923;-47
2022/03/10 03:27:01;;;;;;;;;;;20.60;19.00;;;;;;5142028;27;19957;-47
2022/03/10 03:29:27;;;;;;;;;;;21.00;18.70;;;;;;5142444;27;19980;-55
2022/03/10 03:31:52;;;;;;;;;;;20.60;19.00;;;;;;5143896;27;19963;-50
2022/03/10 03:34:18;;;;;;;;;;;19.50;20.20;;;;;;5141201;27;19927;-50
2022/03/10 03:36:44;;;;;;;;;;;20.50;19.30;;;;;;5141982;27;19938;-55
2022/03/10 03:39:10;;;;;;;;;;;20.90;18.80;;;;;;5147492;27;20022;-47
2022/03/10 03:41:36;;;;;;;;;;;21.20;18.50;;;;;;5143031;27;19975;-49
2022/03/10 03:44:02;;;;;;;;;;;19.20;20.30;;;;;;5128785;27;20040;-46
2022/03/10 03:46:27;;;;;;;;;;;20.20;19.50;;;;;;5141520;27;19923;-48
2022/03/10 03:48:55;;;;;;;;;;;20.80;18.80;;;;;;5140905;27;19923;-51
2022/03/10 03:51:21;;;;;;;;;;;21.20;18.50;;;;;;5139454;27;19929;-53
2022/03/10 03:53:47;;;;;;;;;;;21.30;18.40;;;;;;5142201;27;19923;-49
2022/03/10 03:56:13;;;;;;;;;;;19.10;20.50;;;;;;5141697;27;19937;-48
2022/03/10 03:58:39;;;;;;;;;;;20.20;19.40;;;;;;5147401;27;19927;-45
2022/03/10 04:01:04;;;;;;;;;;;20.80;18.80;;;;;;5141951;27;19923;-46
2022/03/10 04:03:30;;;;;;;;;;;21.20;18.50;;;;;;5147893;27;20017;-49
2022/03/10 04:05:56;;;;;;;;;;;19.60;19.90;;;;;;5141945;27;20399;-47
2022/03/10 04:08:22;;;;;;;;;;;20.20;19.50;;;;;;5138444;27;19923;-51
2022/03/10 04:10:48;;;;;;;;;;;20.90;18.90;;;;;;5145636;27;19931;-45
2022/03/10 04:13:13;;;;;;;;;;;21.20;18.60;;;;;;5141756;27;19927;-53
2022/03/10 04:15:39;;;;;;;;;;;21.10;18.50;;;;;;5142520;27;19927;-49
2022/03/10 04:18:05;;;;;;;;;;;18.90;20.70;;;;;;5147086;27;20014;-53
2022/03/10 04:20:31;;;;;;;;;;;20.10;19.60;;;;;;5141631;27;20289;-50
2022/03/10 04:22:57;;;;;;;;;;;20.90;18.90;;;;;;5146777;27;19923;-47
2022/03/10 04:25:22;;;;;;;;;;;21.20;18.60;;;;;;5141142;27;19923;-49
2022/03/10 04:27:49;;;;;;;;;;;21.20;18.60;;;;;;5138210;27;19923;-47
2022/03/10 04:30:15;;;;;;;;;;;19.10;20.60;;;;;;5145784;27;19923;-49
2022/03/10 04:32:44;;;;;;;;;;;20.20;19.60;;;;;;5141081;27;20259;-48
2022/03/10 04:35:10;;;;;;;;;;;20.90;18.90;;;;;;5141177;27;20010;-49
2022/03/10 04:37:36;;;;;;;;;;;21.20;18.60;;;;;;5146961;27;20026;-51
2022/03/10 04:40:05;;;;;;;;;;;20.60;19.20;;;;;;5142071;27;20385;-48
2022/03/10 04:42:34;;;;;;;;;;;19.50;20.40;;;;;;5142339;27;19929;-57
2022/03/10 04:45:00;;;;;;;;;;;20.60;19.40;;;;;;5144236;27;20458;-51
2022/03/10 04:47:26;;;;;;;;;;;21.10;18.90;;;;;;5138706;27;19952;-47
2022/03/10 04:49:52;;;;;;;;;;;21.30;18.70;;;;;;5147329;27;19923;-52
2022/03/10 04:52:17;;;;;;;;;;;19.40;20.40;;;;;;5141134;27;19931;-49
2022/03/10 04:54:43;;;;;;;;;;;20.10;19.90;;;;;;5141315;27;19930;-45
2022/03/10 04:57:09;;;;;;;;;;;20.80;19.20;;;;;;5146372;27;20315;-50
2022/03/10 04:59:35;;;;;;;;;;;21.20;18.90;;;;;;5143661;27;19926;-54
2022/03/10 05:02:00;;;;;;;;;;;20.20;19.80;;;;;;5144706;27;19989;-50
2022/03/10 05:04:26;;;;;;;;;;;20.00;20.10;;;;;;5146063;27;19927;-50
2022/03/10 05:06:52;;;;;;;;;;;20.70;19.30;;;;;;5143831;27;19958;-46
2022/03/10 05:09:18;;;;;;;;;;;21.10;19.00;;;;;;5149854;27;19930;-47
2022/03/10 05:11:43;;;;;;;;;;;21.30;18.80;;;;;;5145413;27;20357;-49
2022/03/10 05:14:09;;;;;;;;;;;19.10;20.90;;;;;;5144627;27;19927;-49
2022/03/10 05:16:35;;;;;;;;;;;20.20;20.00;;;;;;5149728;27;20374;-51
2022/03/10 05:19:01;;;;;;;;;;;20.80;19.30;;;;;;5144315;27;19930;-48
2022/03/10 05:21:27;;;;;;;;;;;21.10;19.00;;;;;;5144166;27;19954;-50
2022/03/10 05:23:52;;;;;;;;;;;20.40;19.50;;;;;;5146385;27;19935;-47
2022/03/10 05:26:18;;;;;;;;;;;19.70;20.30;;;;;;5143729;27;20324;-49
2022/03/10 05:28:44;;;;;;;;;;;20.60;19.40;;;;;;5149616;27;19923;-46
2022/03/10 05:31:10;;;;;;;;;;;21.00;19.00;;;;;;5144166;27;19931;-47
2022/03/10 05:33:36;;;;;;;;;;;21.30;18.70;;;;;;5144938;27;20327;-52
2022/03/10 05:36:02;;;;;;;;;;;19.50;20.30;;;;;;5149545;27;19930;-50
2022/03/10 05:38:27;;;;;;;;;;;20.30;19.50;;;;;;5144075;27;19946;-48
2022/03/10 05:40:53;;;;;;;;;;;20.90;18.90;;;;;;5140686;27;20134;-51
2022/03/10 05:43:19;;;;;;;;;;;21.30;18.60;;;;;;5148309;27;19931;-48
2022/03/10 05:45:45;;;;;;;;;;;20.30;19.30;;;;;;5144217;27;20006;-51
2022/03/10 05:48:11;;;;;;;;;;;19.80;19.90;;;;;;5148870;27;19934;-54
2022/03/10 05:50:36;;;;;;;;;;;20.70;19.10;;;;;;5144748;27;19992;-53
2022/03/10 05:53:03;;;;;;;;;;;21.20;18.70;;;;;;5144441;27;20013;-52
2022/03/10 05:55:29;;;;;;;;;;;20.80;18.80;;;;;;5149780;27;19933;-49
2022/03/10 05:57:55;;;;;;;;;;;19.50;20.10;;;;;;5143612;27;19923;-49
2022/03/10 06:00:21;;;;;;;;;;;20.50;19.20;;;;;;5140231;27;19923;-47
2022/03/10 06:02:46;;;;;;;;;;;21.00;18.70;;;;;;5148596;27;20062;-52
2022/03/10 06:05:12;;;;;;;;;;;21.30;18.50;;;;;;5144593;27;19923;-48
2022/03/10 06:07:38;;;;;;;;;;;19.10;20.50;;;;;;5146446;27;19934;-55
2022/03/10 06:10:04;;;;;;;;;;;20.20;19.50;;;;;;5146600;27;19929;-50
2022/03/10 06:12:30;;;;;;;;;;;20.80;19.00;;;;;;5143279;27;20010;-49
2022/03/10 06:15:00;;;;;;;;;;;21.20;18.70;;;;;;5149262;27;20366;-52
2022/03/10 06:17:26;;;;;;;;;;;20.30;19.30;;;;;;5141909;27;20325;-46
2022/03/10 06:19:51;;;;;;;;;;;19.80;20.00;;;;;;5140280;27;19952;-48
2022/03/10 06:22:21;;;;;;;;;;;20.70;19.10;;;;;;5148300;27;19946;-48
2022/03/10 06:24:47;;;;;;;;;;;21.00;18.80;;;;;;5143203;27;19923;-46
2022/03/10 06:27:13;;;;;;;;;;;21.30;18.50;;;;;;5144111;27;20283;-47
2022/03/10 06:29:39;;;;;;;;;;;19.40;20.30;;;;;;5128716;27;19934;-47
2022/03/10 06:32:05;;;;;;;;;;;20.30;19.50;;;;;;5143056;27;20025;-49
2022/03/10 06:34:30;;;;;;;;;;;20.80;19.00;;;;;;5148333;27;20294;-46
2022/03/10 06:36:57;;;;;;;;;;;21.30;18.70;;;;;;5139833;27;19934;-50
2022/03/10 06:39:23;;;;;;;;;;;20.20;19.50;;;;;;5142394;27;19923;-48
2022/03/10 06:41:48;;;;;;;;;;;19.90;20.00;;;;;;5148404;27;19922;-50
2022/03/10 06:44:14;;;;;;;;;;;20.70;19.20;;;;;;5143128;27;19923;-49
2022/03/10 06:46:40;;;;;;;;;;;21.10;18.80;;;;;;5143228;27;19934;-49
2022/03/10 06:49:06;;;;;;;;;;;21.00;18.90;;;;;;5148945;27;19927;-46
2022/03/10 06:51:32;;;;;;;;;;;19.30;20.50;;;;;;5142965;27;19971;-51
2022/03/10 06:53:57;;;;;;;;;;;20.50;19.50;;;;;;5147882;27;19923;-46
2022/03/10 06:56:23;;;;;;;;;;;20.90;19.00;;;;;;5138998;27;19923;-45
2022/03/10 06:58:49;;;;;;;;;;;21.30;18.70;;;;;;5142705;27;20370;-53
2022/03/10 07:01:15;;;;;;;;;;;19.50;20.10;;;;;;5148045;27;19927;-52
2022/03/10 07:03:41;;;;;;;;;;;20.10;19.90;;;;;;5142841;27;20301;-49
2022/03/10 07:06:06;;;;;;;;;;;20.80;19.20;;;;;;5142732;27;20179;-51
2022/03/10 07:08:32;;;;;;;;;;;21.20;18.80;;;;;;5148627;27;20023;-52
2022/03/10 07:10:58;;;;;;;;;;;20.30;19.60;;;;;;5142785;27;19923;-47
2022/03/10 07:13:24;;;;;;;;;;;19.80;20.30;;;;;;5143058;27;19998;-56
2022/03/10 07:15:50;;;;;;;;;;;20.60;19.40;;;;;;5142563;27;20025;-51
2022/03/10 07:18:15;;;;;;;;;;;21.10;19.00;;;;;;5142490;27;19944;-53
2022/03/10 07:20:41;;;;;;;;;;;20.90;19.10;;;;;;5148278;27;19946;-48
2022/03/10 07:23:07;;;;;;;;;;;19.60;20.40;;;;;;5141607;27;20366;-47
2022/03/10 07:25:33;;;;;;;;;;;20.50;19.50;;;;;;5142123;27;19934;-49
2022/03/10 07:27:59;;;;;;;;;;;21.00;19.00;;;;;;5148018;27;19923;-52
2022/03/10 07:30:24;;;;;;;;;;;20.80;19.10;;;;;;5142644;27;19966;-51
2022/03/10 07:32:50;;;;;;;;;;;19.60;20.30;;;;;;5139787;27;19922;-52
2022/03/10 07:35:16;;;;;;;;;;;20.50;19.40;;;;;;5145263;27;19934;-46
2022/03/10 07:37:42;;;;;;;;;;;21.00;18.90;;;;;;5142351;27;20993;-50
2022/03/10 07:40:08;;;;;;;;;;;20.80;19.00;;;;;;5148551;27;20010;-49
2022/03/10 07:42:34;;;;;;;;;;;19.40;20.30;;;;;;5141982;27;20511;-48
2022/03/10 07:45:00;;;;;;;;;;;20.50;19.30;;;;;;5142197;27;19927;-44
2022/03/10 07:47:26;;;;;;;;;;;21.00;18.90;;;;;;5147890;27;19976;-51
2022/03/10 07:49:51;;;;;;;;;;;20.80;19.00;;;;;;5141727;27;19923;-50
2022/03/10 07:52:17;;;;;;;;;;;19.40;20.40;;;;;;5138635;27;19931;-49
2022/03/10 07:54:43;;;;;;;;;;;20.40;19.40;;;;;;5128457;27;20684;-47
2022/03/10 07:57:09;;;;;;;;;;;21.00;18.90;;;;;;5142058;27;19931;-49
2022/03/10 07:59:35;;;;;;;;;;;21.00;18.80;;;;;;5148452;27;19952;-49
2022/03/10 08:02:01;;;;;;;;;;;19.30;20.50;;;;;;5141982;27;20022;-50
2022/03/10 08:04:26;;;;;;;;;;;20.50;19.40;;;;;;5141745;27;19929;-46
2022/03/10 08:06:52;;;;;;;;;;;21.00;18.90;;;;;;5128860;27;19973;-53
2022/03/10 08:09:18;;;;;;;;;;;20.80;19.00;;;;;;5138353;27;20291;-47
2022/03/10 08:11:44;;;;;;;;;;;19.50;20.40;;;;;;5140061;27;19927;-48
2022/03/10 08:14:10;;;;;;;;;;;20.50;19.40;;;;;;5146901;27;19923;-52
2022/03/10 08:16:36;;;;;;;;;;;21.00;18.90;;;;;;5142032;27;20010;-51
2022/03/10 08:19:01;;;;;;;;;;;20.50;19.30;;;;;;5147468;27;19927;-47
2022/03/10 08:21:27;;;;;;;;;;;19.70;20.20;;;;;;5141245;27;19923;-47
2022/03/10 08:23:53;;;;;;;;;;;20.70;19.20;;;;;;5141509;27;19980;-48
2022/03/10 08:26:19;;;;;;;;;;;21.20;18.80;;;;;;5147223;27;20370;-50
2022/03/10 08:28:50;;;;;;;;;;;20.40;19.40;;;;;;5137891;27;20282;-47
2022/03/10 08:31:17;;;;;;;;;;;19.60;20.30;;;;;;5140747;27;20205;-49
2022/03/10 08:33:43;;;;;;;;;;;20.70;19.30;;;;;;5149309;27;20015;-47
2022/03/10 08:36:09;;;;;;;;;;;21.20;18.90;;;;;;5146195;27;19927;-49
2022/03/10 08:38:35;;;;;;;;;;;20.20;19.70;;;;;;5148947;27;19927;-57
2022/03/10 08:41:01;;;;;;;;;;;19.80;20.30;;;;;;5147324;27;19977;-52
2022/03/10 08:43:29;;;;;;;;;;;20.80;19.40;;;;;;5144882;27;19923;-49
2022/03/10 08:45:55;;;;;;;;;;;21.20;18.90;;;;;;5147830;27;20301;-53
2022/03/10 08:48:21;;;;;;;;;;;20.00;20.00;;;;;;5143447;27;19927;-50
2022/03/10 08:50:47;;;;;;;;;;;20.10;20.10;;;;;;5144517;27;19930;-47
2022/03/10 08:53:13;;;;;;;;;;;20.90;19.40;;;;;;5150427;27;20290;-48
2022/03/10 08:55:38;;;;;;;;;;;21.00;19.20;;;;;;5145315;27;19931;-49
2022/03/10 08:58:04;;;;;;;;;;;19.20;21.10;;;;;;5145153;27;19923;-50
2022/03/10 09:00:30;;;;;;;;;;;20.50;19.90;;;;;;5149988;27;19991;-45
2022/03/10 09:02:56;;;;;;;;;;;21.10;19.30;;;;;;5145377;27;19934;-49
2022/03/10 09:05:22;;;;;;;;;;;20.60;19.70;;;;;;5146470;27;19923;-48
2022/03/10 09:07:48;;;;;;;;;;;19.50;21.00;;;;;;5143547;27;19923;-47
2022/03/10 09:10:13;;;;;;;;;;;20.70;19.80;;;;;;5124822;27;20018;-47
2022/03/10 09:12:40;;;;;;;;;;;21.20;19.20;;;;;;5131869;27;19976;-49
2022/03/10 09:15:06;;;;;;;;;;;20.50;19.70;;;;;;5127197;27;20430;-45
2022/03/10 09:17:32;;;;;;;;;;;19.70;20.80;;;;;;5144599;27;20296;-48
2022/03/10 09:19:57;;;;;;;;;;;20.80;19.60;;;;;;5149751;27;19936;-45
2022/03/10 09:22:25;;;;;;;;;;;21.30;19.20;;;;;;5145089;27;20347;-50
2022/03/10 09:24:51;;;;;;;;;;;19.60;20.80;;;;;;5147184;27;19923;-45
2022/03/10 09:27:17;;;;;;;;;;;20.00;20.70;;;;;;5144018;27;19931;-46
2022/03/10 09:29:43;;;;;;;;;;;20.90;19.80;;;;;;5144027;27;20455;-47
2022/03/10 09:32:09;;;;;;;;;;;21.30;19.30;;;;;;5150511;27;19945;-52
2022/03/10 09:34:35;;;;;;;;;;;19.50;21.20;;;;;;5144425;27;20346;-46
2022/03/10 09:37:01;;;;;;;;;;;20.20;20.70;;;;;;5144076;27;19991;-50
2022/03/10 09:39:27;;;;;;;;;;;21.00;19.80;;;;;;5149703;27;19975;-54
2022/03/10 09:41:54;;;;;;;;;;;20.80;19.90;;;;;;5124017;27;19923;-47
2022/03/10 09:44:20;;;;;;;;;;;19.30;21.70;;;;;;5147428;27;19923;-53
2022/03/10 09:46:47;;;;;;;;;;;20.60;20.40;;;;;;5144596;27;20006;-46
2022/03/10 09:49:13;;;;;;;;;;;21.20;19.70;;;;;;5146679;27;20297;-47
2022/03/10 09:51:39;;;;;;;;;;;19.90;20.90;;;;;;5131085;27;19923;-48
2022/03/10 09:54:04;;;;;;;;;;;19.90;21.10;;;;;;5144153;27;19979;-47
2022/03/10 09:56:31;;;;;;;;;;;20.90;20.10;;;;;;5145161;27;19930;-48
2022/03/10 09:58:56;;;;;;;;;;;21.20;19.80;;;;;;5130955;27;20290;-47
2022/03/10 10:01:22;;;;;;;;;;;19.10;21.80;;;;;;5139633;27;19934;-46
2022/03/10 10:03:48;;;;;;;;;;;20.30;20.70;;;;;;5145916;27;20328;-54
2022/03/10 10:06:14;;;;;;;;;;;21.10;19.90;;;;;;5147408;27;19923;-47
2022/03/10 10:08:41;;;;;;;;;;;20.60;20.30;;;;;;5125676;27;19923;-47
2022/03/10 10:11:07;;;;;;;;;;;19.80;21.20;;;;;;5149148;27;19958;-46
2022/03/10 10:13:34;;;;;;;;;;;20.80;20.10;;;;;;5143731;27;20397;-46
2022/03/10 10:16:03;;;;;;;;;;;21.10;19.90;;;;;;5145140;27;19923;-47
2022/03/10 10:18:29;;;;;;;;;;;19.30;21.90;;;;;;5145071;27;19935;-47
2022/03/10 10:20:55;;;;;;;;;;;20.60;20.60;;;;;;5141987;27;19933;-47
2022/03/10 10:23:21;;;;;;;;;;;21.30;19.90;;;;;;5145531;27;19923;-50
2022/03/10 10:25:53;;;;;;;;;;;19.70;21.20;;;;;;5148836;27;19930;-45
2022/03/10 10:28:27;;;;;;;;;;;20.10;20.90;;;;;;5143347;27;19952;-44
2022/03/10 10:30:53;;;;;;;;;;;21.10;19.90;;;;;;5147377;27;19923;-57
2022/03/10 10:33:19;;;;;;;;;;;20.50;20.30;;;;;;5147405;27;19927;-47
2022/03/10 10:35:45;;;;;;;;;;;19.80;21.30;;;;;;5142695;27;19923;-47
2022/03/10 10:38:12;;;;;;;;;;;20.90;20.10;;;;;;5144629;27;19923;-51
2022/03/10 10:40:38;;;;;;;;;;;21.10;19.90;;;;;;5125588;27;20267;-46
2022/03/10 10:43:04;;;;;;;;;;;19.30;21.90;;;;;;5124726;27;19934;-48
2022/03/10 10:45:33;;;;;;;;;;;20.60;20.60;;;;;;5130078;27;19943;-51
2022/03/10 10:48:00;;;;;;;;;;;21.30;19.90;;;;;;5144874;27;19923;-49
2022/03/10 10:50:27;;;;;;;;;;;19.40;21.70;;;;;;5143115;27;20386;-48
2022/03/10 10:52:53;;;;;;;;;;;20.50;20.80;;;;;;5148465;27;19945;-50
2022/03/10 10:55:19;;;;;;;;;;;21.30;19.90;;;;;;5142384;27;19923;-49
2022/03/10 10:57:45;;;;;;;;;;;19.80;21.10;;;;;;5126989;27;20306;-46
2022/03/10 11:00:11;;;;;;;;;;;20.40;20.60;;;;;;5123467;27;19924;-48
2022/03/10 11:02:40;;;;;;;;;;;21.20;19.70;;;;;;5144712;27;20417;-45
2022/03/10 11:05:07;;;;;;;;;;;20.30;20.30;;;;;;5148740;27;20060;-48
2022/03/10 11:07:32;;;;;;;;;;;20.00;20.70;;;;;;5124413;27;20305;-45
2022/03/10 11:09:58;;;;;;;;;;;21.10;19.60;;;;;;5125321;27;20243;-48
2022/03/10 11:12:24;;;;;;;;;;;20.60;20.10;;;;;;5148242;27;20330;-47
2022/03/10 11:14:50;;;;;;;;;;;19.90;21.00;;;;;;5138308;27;19931;-45
2022/03/10 11:17:17;;;;;;;;;;;21.00;19.80;;;;;;5146961;27;19934;-56
2022/03/10 11:19:44;;;;;;;;;;;21.00;19.80;;;;;;5143986;27;19929;-45
2022/03/10 11:22:29;;;;;;;;;;;19.40;21.30;;;;;;5142337;27;19927;-45
2022/03/10 11:25:01;;;;;;;;;;;20.70;19.90;;;;;;5148150;27;19927;-45
2022/03/10 11:27:28;;;;;;;;;;;21.00;19.30;;;;;;5143882;27;19927;-45
2022/03/10 11:29:54;;;;;;;;;;;19.40;20.70;;;;;;5142137;27;20554;-46
2022/03/10 11:32:24;;;;;;;;;;;20.60;19.60;;;;;;5124114;27;19924;-50
2022/03/10 11:34:52;;;;;;;;;;;21.30;19.00;;;;;;5141862;27;19923;-51
2022/03/10 11:37:34;;;;;;;;;;;19.60;20.40;;;;;;5142109;27;19927;-44
2022/03/10 11:40:00;;;;;;;;;;;20.50;19.70;;;;;;5147632;27;20026;-47
2022/03/10 11:42:29;;;;;;;;;;;21.30;18.90;;;;;;5143257;27;19942;-46
2022/03/10 11:45:11;;;;;;;;;;;19.70;20.40;;;;;;5142031;27;19923;-44
2022/03/10 11:47:38;;;;;;;;;;;20.20;20.10;;;;;;5128971;27;19946;-45
2022/03/10 11:50:23;;;;;;;;;;;21.30;19.00;;;;;;5141784;27;20566;-46
2022/03/10 11:52:49;;;;;;;;;;;20.50;19.50;;;;;;5139100;27;20337;-49
2022/03/10 11:55:16;;;;;;;;;;;19.80;20.30;;;;;;5147208;27;20370;-46
2022/03/10 11:58:04;;;;;;;;;;;21.10;19.20;;;;;;5141861;27;20024;-48
2022/03/10 12:00:39;;;;;;;;;;;21.10;19.10;;;;;;5139924;27;20378;-44
2022/03/10 12:03:05;;;;;;;;;;;19.90;20.20;;;;;;5147329;27;20362;-45
2022/03/10 12:05:49;;;;;;;;;;;21.10;19.00;;;;;;5142479;27;19930;-45
2022/03/10 12:08:17;;;;;;;;;;;20.70;19.00;;;;;;5140441;27;20345;-45
2022/03/10 12:10:42;;;;;;;;;;;19.80;19.90;;;;;;5123002;27;19927;-48
2022/03/10 12:13:27;;;;;;;;;;;21.00;18.80;;;;;;5141789;27;20010;-44
2022/03/10 12:15:53;;;;;;;;;;;20.90;18.60;;;;;;5141631;27;20436;-46
2022/03/10 12:18:22;;;;;;;;;;;19.70;19.80;;;;;;5125663;28;21150;-45
2022/03/10 12:20:50;;;;;;;;;;;20.90;18.70;;;;;;5121263;27;19923;-46
2022/03/10 12:23:16;;;;;;;;;;;21.10;18.50;;;;;;5121370;27;19946;-51
2022/03/10 12:25:43;;;;;;;;;;;19.40;20.30;;;;;;5126124;27;19932;-46
2022/03/10 12:28:10;;;;;;;;;;;20.80;19.00;;;;;;5117145;27;19931;-48
2022/03/10 12:30:38;;;;;;;;;;;21.20;18.40;;;;;;5125126;27;20378;-46
2022/03/10 12:33:04;;;;;;;;;;;19.60;19.60;;;;;;5120555;27;19927;-45
2022/03/10 12:35:30;;;;;;;;;;;20.50;18.90;;;;;;5120537;28;19984;-46
2022/03/10 12:37:56;;;;;;;;;;;21.20;18.20;;;;;;5126027;27;20043;-45
2022/03/10 12:40:23;;;;;;;;;;;19.90;19.20;;;;;;5119517;28;19939;-45
2022/03/10 12:42:48;;;;;;;;;;;20.30;18.90;;;;;;5120615;27;19934;-44
2022/03/10 12:45:18;;;;;;;;;;;21.30;18.10;;;;;;5125671;28;19927;-44
2022/03/10 12:47:44;;;;;;;;;;;20.20;18.70;;;;;;5115141;28;20340;-44
2022/03/10 12:50:10;;;;;;;;;;;20.30;18.70;;;;;;5124955;27;19968;-50
2022/03/10 12:52:40;;;;;;;;;;;21.30;17.90;;;;;;5121409;27;19928;-45
2022/03/10 12:55:06;;;;;;;;;;;20.20;18.60;;;;;;5120353;27;20375;-45
2022/03/10 12:57:37;;;;;;;;;;;20.10;19.10;;;;;;5125878;27;19923;-46
2022/03/10 13:00:23;;;;;;;;;;;21.20;18.10;;;;;;5121060;27;20385;-46
2022/03/10 13:02:48;;;;;;;;;;;20.30;18.90;;;;;;5119946;27;20371;-44
2022/03/10 13:05:20;;;;;;;;;;;20.20;19.00;;;;;;5121467;27;19927;-50
2022/03/10 13:07:46;;;;;;;;;;;21.30;18.10;;;;;;5118209;28;19930;-47
2022/03/10 13:10:13;;;;;;;;;;;20.50;18.30;;;;;;5120130;28;20366;-44
2022/03/10 13:12:40;;;;;;;;;;;20.00;19.00;;;;;;5125763;27;19980;-45
2022/03/10 13:15:10;;;;;;;;;;;21.10;18.00;;;;;;5120502;27;20079;-45
2022/03/10 13:17:36;;;;;;;;;;;20.70;17.90;;;;;;5118948;28;19927;-44
2022/03/10 13:20:10;;;;;;;;;;;19.70;18.90;;;;;;5127011;27;19927;-46
2022/03/10 13:22:36;;;;;;;;;;;20.90;17.80;;;;;;5122206;27;20014;-48
2022/03/10 13:25:01;;;;;;;;;;;21.00;17.70;;;;;;5123911;28;20512;-51
2022/03/10 13:27:29;;;;;;;;;;;19.60;19.10;;;;;;5123613;28;19930;-46
2022/03/10 13:29:54;;;;;;;;;;;20.90;18.00;;;;;;5123672;28;20071;-45
2022/03/10 13:32:21;;;;;;;;;;;21.20;17.80;;;;;;5129063;28;19924;-46
2022/03/10 13:34:47;;;;;;;;;;;19.40;19.20;;;;;;5123545;27;20383;-46
2022/03/10 13:37:13;;;;;;;;;;;20.80;18.10;;;;;;5123770;28;19930;-44
2022/03/10 13:39:40;;;;;;;;;;;21.20;17.70;;;;;;5127448;28;19924;-44
2022/03/10 13:42:08;;;;;;;;;;;19.60;18.90;;;;;;5118037;28;19934;-48
2022/03/10 13:44:34;;;;;;;;;;;20.60;18.00;;;;;;5121358;28;20322;-53
2022/03/10 13:47:04;;;;;;;;;;;21.20;17.20;;;;;;5127349;28;19936;-44
2022/03/10 13:49:29;;;;;;;;;;;19.70;18.00;;;;;;5123147;27;19927;-45
2022/03/10 13:51:55;;;;;;;;;;;20.80;17.20;;;;;;5128716;28;19930;-44
2022/03/10 13:54:21;;;;;;;;;;;21.20;16.90;;;;;;5123493;28;19935;-47
2022/03/10 13:56:48;;;;;;;;;;;19.60;18.20;;;;;;5121595;28;19928;-45
2022/03/10 13:59:15;;;;;;;;;;;20.80;17.40;;;;;;5127826;27;19984;-46
2022/03/10 14:01:43;;;;;;;;;;;21.30;16.80;;;;;;5119193;27;19923;-45
2022/03/10 14:04:16;;;;;;;;;;;19.70;17.80;;;;;;5122286;28;20218;-44
2022/03/10 14:06:46;;;;;;;;;;;20.40;17.30;;;;;;5127077;28;19934;-45
2022/03/10 14:09:18;;;;;;;;;;;21.30;16.70;;;;;;5123334;27;20339;-45
2022/03/10 14:11:44;;;;;;;;;;;19.90;17.80;;;;;;5123060;27;19924;-46
2022/03/10 14:14:10;;;;;;;;;;;20.30;17.60;;;;;;5128379;27;19930;-45
2022/03/10 14:16:36;;;;;;;;;;;21.30;16.90;;;;;;5122892;28;20397;-44
2022/03/10 14:19:04;;;;;;;;;;;20.40;17.20;;;;;;5122849;28;19934;-45